Perth International Airport
YPPH : now visible

Airfield :











YOU CAN JOIN US ON...

 
LOGIN :

Register | Disclaimer

   EN    FR    IT 

 









Legend :    VFR   Marginal VFR   IFR   Intensive IFR   Very Intensive IFR
Visi :
Ceiling :
>= 8 km
>= 3000ft
5 to 8 km
1000 to 3000 ft
1500m to 5 km
500 to 1000 ft
800 to 1500m
200 to 500 ft
< 800m
< 200 ft
Symbols :   Thunderstorms  Fog  Heavy snow  Heavy precipitations  Wind > 20 kt






- Airport Elevation : 67 ft
- IATA code : PER


YPPH - Perth International

CURRENT METAR :
  • 292017Z 24018KT 5000 SHRA BKN013 BKN022 14/13 Q1009

EXPIRED METARs :
  • 292000Z 24012KT 9999 VCSH FEW015 SCT025 BKN045 15/13 Q1008
  • 291930Z 28015G27KT 9999 -SHRA FEW016 SCT025 BKN045 15/13 Q1008
  • 291921Z 29015KT 9999 SHRA BKN025 BKN060 16/12 Q1008
  • 291900Z 28007KT 9999 VCSH SCT025 SCT060 17/12 Q1008
  • 291830Z 29008KT 9999 VCSH FEW025 BKN050 16/12 Q1008
  • 291800Z 28008KT 9999 SCT035 SCT045 16/12 Q1008

TAF TAF YPPH
Valid from the 29 at 21:00 until the 01 at 00:00 UTC


292023Z 2921/0100 25014KT 9999 -SHRA SCT020 BKN030
BECMG 2922/2923 24018G28KT 9999 -SHRA SCT025 BKN040
FM300200 22020G30KT 9999 NSW SCT050
FM301100 19010KT CAVOK INTER 2921/2922 26020G30KT 3000 SHRA BKN012
YMMM FIR / Oceania



MET'MAP, your aeronautical weather chart ! - Copyright ORBIFLY December 2007 - Disclaimer

ORBIFLY MET'MAP TEAM :

Programming & Development : Alexandra Zaïnal
Concept & original design : Baudouin d'Aumeries
Assistance for programming : Marc-Olivier Méhu
Technical & hardware support : Manuel Goepfert

Contact : metmap@orbifly.com




SOURCES & CREDITS :

   NOAA       Earth
Advisory